TOWK1: Whitewater River, Towanda, KS

Data processed at Thu May 23 2019 23:50


All information presented herein is the property of the government of the United States of America and may be revised or deleted at any time without prior notice.
Dissemination of this information without the expressed written consent of the Public Affairs Office, Tulsa District U.S. Army Corps of Engineers is strictly prohibited.
These data are gathered electronically and, as presented, have not undergone any form of quality control. These data are not guaranteed to be valid or correct.
Go to home page.
Go to station list.
Go to home page.

Downstream station:


Previous Day
Next Day
Current Day
    
SHEF ID:       TOWK1     WHITEWATER R AT TOWANDA, KS
STATION TYPE:  
Regulating: Stage =    22.00, Flow =     7669

               PRECIP     STAGE  RIV-FLOW  BAT-LOAD
                   in        ft       cfs      volt
              Ccp-Rev   Ccp-Rev   Ccp-Rev   Ccp-Rev
(US/Central)
05/23 00:00      0.00     19.96      6376     12.49
05/23 01:00      0.00     19.09      5964     12.41
05/23 02:00      0.00     18.18      5542     12.41
05/23 03:00      0.00     17.24      5115     12.41
05/23 04:00      0.00     16.33      4711     12.41
05/23 05:00      0.00     15.47      4339     12.41
05/23 06:00      0.00     14.66      3995     12.41
05/23 07:00      0.00     13.85      3660     12.41
05/23 08:00      0.00     13.18      3390     12.41
05/23 09:00      0.00     12.64      3176     12.41
05/23 10:00      0.00     12.15      2985     12.41
05/23 11:00      0.00     11.79      2847     12.41
05/23 12:00      0.00     11.56      2760     12.41
05/23 13:00      0.00     11.38      2692     12.49
05/23 14:00      0.00     11.21      2628     12.57
05/23 15:00      0.00     11.11      2591     12.49
05/23 16:00      0.00     11.00      2551     12.49
05/23 17:00      0.01     10.97      2540     12.57
05/23 18:00      0.00     10.89      2510     12.49
05/23 19:00      0.00     10.84      2492     12.49
05/23 20:00      0.00     10.76      2462     12.49
05/23 21:00      0.00     10.71      2444     12.49
05/23 22:00      0.00     10.68      2433     12.49
05/23 23:00      0.00     10.64      2419     12.49